sensor_id;sensor_type;location;lat;lon;timestamp;pressure;altitude;pressure_sealevel;temperature;humidity
77590;BME280;66746;51.328;12.332;2023-03-13T00:02:32;99649.91;;;6.87;85.74
77590;BME280;66746;51.328;12.332;2023-03-13T00:04:58;99661.59;;;6.86;85.54
77590;BME280;66746;51.328;12.332;2023-03-13T00:07:30;99662.56;;;6.83;84.93
77590;BME280;66746;51.328;12.332;2023-03-13T00:10:00;99676.72;;;6.90;85.47
77590;BME280;66746;51.328;12.332;2023-03-13T00:12:27;99675.81;;;6.91;85.10
77590;BME280;66746;51.328;12.332;2023-03-13T00:15:02;99647.47;;;6.79;85.12
77590;BME280;66746;51.328;12.332;2023-03-13T00:17:29;99638.56;;;6.76;85.78
77590;BME280;66746;51.328;12.332;2023-03-13T00:19:59;99655.31;;;6.85;85.62
77590;BME280;66746;51.328;12.332;2023-03-13T00:22:32;99654.44;;;6.85;85.67
77590;BME280;66746;51.328;12.332;2023-03-13T00:25:00;99630.50;;;6.76;84.49
77590;BME280;66746;51.328;12.332;2023-03-13T00:27:30;99652.47;;;6.90;84.91
77590;BME280;66746;51.328;12.332;2023-03-13T00:29:59;99628.53;;;6.81;84.78
77590;BME280;66746;51.328;12.332;2023-03-13T00:32:32;99656.63;;;7.00;84.72
77590;BME280;66746;51.328;12.332;2023-03-13T00:34:58;99656.41;;;7.06;85.10
77590;BME280;66746;51.328;12.332;2023-03-13T00:37:30;99648.59;;;6.98;84.61
77590;BME280;66746;51.328;12.332;2023-03-13T00:40:00;99636.31;;;6.90;84.56
77590;BME280;66746;51.328;12.332;2023-03-13T00:42:29;99625.59;;;6.88;84.22
77590;BME280;66746;51.328;12.332;2023-03-13T00:44:58;99642.31;;;6.98;84.20
77590;BME280;66746;51.328;12.332;2023-03-13T00:47:31;99625.59;;;6.88;84.66
77590;BME280;66746;51.328;12.332;2023-03-13T00:50:00;99628.22;;;6.90;84.44
77590;BME280;66746;51.328;12.332;2023-03-13T00:52:29;99651.00;;;7.06;84.52
77590;BME280;66746;51.328;12.332;2023-03-13T00:55:00;99634.84;;;7.06;83.71
77590;BME280;66746;51.328;12.332;2023-03-13T00:57:29;99648.94;;;7.14;84.00
77590;BME280;66746;51.328;12.332;2023-03-13T00:59:58;99649.50;;;7.24;83.85
77590;BME280;66746;51.328;12.332;2023-03-13T01:02:30;99645.59;;;7.32;82.34
77590;BME280;66746;51.328;12.332;2023-03-13T01:05:00;99639.47;;;7.27;83.35
77590;BME280;66746;51.328;12.332;2023-03-13T01:07:29;99604.16;;;7.10;82.93
77590;BME280;66746;51.328;12.332;2023-03-13T01:10:00;99622.69;;;7.19;83.46
77590;BME280;66746;51.328;12.332;2023-03-13T01:12:30;99594.47;;;7.04;82.71
77590;BME280;66746;51.328;12.332;2023-03-13T01:15:00;99609.53;;;7.10;82.88
77590;BME280;66746;51.328;12.332;2023-03-13T01:17:29;99630.56;;;7.25;82.63
77590;BME280;66746;51.328;12.332;2023-03-13T01:20:02;99628.00;;;7.21;82.90
77590;BME280;66746;51.328;12.332;2023-03-13T01:22:29;99604.09;;;7.11;82.98
77590;BME280;66746;51.328;12.332;2023-03-13T01:24:55;99617.47;;;7.14;82.91
77590;BME280;66746;51.328;12.332;2023-03-13T01:27:33;99565.19;;;6.94;83.24
77590;BME280;66746;51.328;12.332;2023-03-13T01:30:00;99588.06;;;7.07;83.49
77590;BME280;66746;51.328;12.332;2023-03-13T01:32:31;99585.28;;;7.10;82.94
77590;BME280;66746;51.328;12.332;2023-03-13T01:35:00;99590.59;;;7.11;83.31
77590;BME280;66746;51.328;12.332;2023-03-13T01:37:30;99580.72;;;7.12;83.34
77590;BME280;66746;51.328;12.332;2023-03-13T01:40:01;99558.06;;;6.93;82.95
77590;BME280;66746;51.328;12.332;2023-03-13T01:42:48;99579.06;;;7.08;82.85
77590;BME280;66746;51.328;12.332;2023-03-13T01:45:49;99575.41;;;7.09;83.56
77590;BME280;66746;51.328;12.332;2023-03-13T01:48:16;99572.91;;;7.04;82.74
77590;BME280;66746;51.328;12.332;2023-03-13T01:50:46;99572.72;;;7.09;83.09
77590;BME280;66746;51.328;12.332;2023-03-13T01:53:22;99573.38;;;7.15;82.74
77590;BME280;66746;51.328;12.332;2023-03-13T01:56:04;99574.97;;;7.21;81.45
77590;BME280;66746;51.328;12.332;2023-03-13T01:58:34;99538.63;;;7.08;81.83
77590;BME280;66746;51.328;12.332;2023-03-13T02:01:02;99565.84;;;7.25;81.95
77590;BME280;66746;51.328;12.332;2023-03-13T02:03:30;99558.69;;;7.24;81.46
77590;BME280;66746;51.328;12.332;2023-03-13T02:06:01;99562.31;;;7.23;82.42
77590;BME280;66746;51.328;12.332;2023-03-13T02:08:32;99563.19;;;7.24;82.25
77590;BME280;66746;51.328;12.332;2023-03-13T02:11:09;99550.63;;;7.24;81.47
77590;BME280;66746;51.328;12.332;2023-03-13T02:13:39;99538.94;;;7.24;80.83
77590;BME280;66746;51.328;12.332;2023-03-13T02:16:06;99561.41;;;7.47;80.81
77590;BME280;66746;51.328;12.332;2023-03-13T02:18:35;99541.13;;;7.37;80.33
77590;BME280;66746;51.328;12.332;2023-03-13T02:21:09;99556.00;;;7.47;80.87
77590;BME280;66746;51.328;12.332;2023-03-13T02:23:43;99558.88;;;7.43;81.32
77590;BME280;66746;51.328;12.332;2023-03-13T02:26:14;99523.59;;;7.26;81.08
77590;BME280;66746;51.328;12.332;2023-03-13T02:28:41;99550.78;;;7.43;81.31
77590;BME280;66746;51.328;12.332;2023-03-13T02:31:13;99524.19;;;7.34;80.98
77590;BME280;66746;51.328;12.332;2023-03-13T02:33:41;99517.72;;;7.38;80.90
77590;BME280;66746;51.328;12.332;2023-03-13T02:36:11;99533.63;;;7.45;81.71
77590;BME280;66746;51.328;12.332;2023-03-13T02:38:44;99497.38;;;7.29;81.83
77590;BME280;66746;51.328;12.332;2023-03-13T02:41:15;99513.09;;;7.41;81.85
77590;BME280;66746;51.328;12.332;2023-03-13T02:43:43;99512.97;;;7.44;81.39
77590;BME280;66746;51.328;12.332;2023-03-13T02:46:12;99501.78;;;7.32;82.09
77590;BME280;66746;51.328;12.332;2023-03-13T02:48:44;99500.72;;;7.36;81.54
77590;BME280;66746;51.328;12.332;2023-03-13T02:51:16;99510.22;;;7.46;81.74
77590;BME280;66746;51.328;12.332;2023-03-13T02:53:45;99488.75;;;7.43;81.18
77590;BME280;66746;51.328;12.332;2023-03-13T02:56:16;99495.03;;;7.43;82.05
77590;BME280;66746;51.328;12.332;2023-03-13T02:58:44;99489.47;;;7.48;81.37
77590;BME280;66746;51.328;12.332;2023-03-13T03:01:19;99501.41;;;7.41;81.83
77590;BME280;66746;51.328;12.332;2023-03-13T03:03:46;99463.38;;;7.25;81.79
77590;BME280;66746;51.328;12.332;2023-03-13T03:06:13;99487.88;;;7.42;81.53
77590;BME280;66746;51.328;12.332;2023-03-13T03:08:39;99484.75;;;7.53;80.76
77590;BME280;66746;51.328;12.332;2023-03-13T03:11:07;99486.72;;;7.49;81.26
77590;BME280;66746;51.328;12.332;2023-03-13T03:13:35;99464.06;;;7.53;80.81
77590;BME280;66746;51.328;12.332;2023-03-13T03:16:05;99450.34;;;7.36;81.41
77590;BME280;66746;51.328;12.332;2023-03-13T03:18:32;99453.69;;;7.43;81.98
77590;BME280;66746;51.328;12.332;2023-03-13T03:21:02;99458.66;;;7.53;80.72
77590;BME280;66746;51.328;12.332;2023-03-13T03:23:29;99455.03;;;7.54;80.76
77590;BME280;66746;51.328;12.332;2023-03-13T03:25:58;99427.47;;;7.46;81.13
77590;BME280;66746;51.328;12.332;2023-03-13T03:28:31;99433.00;;;7.43;80.89
77590;BME280;66746;51.328;12.332;2023-03-13T03:31:04;99447.00;;;7.53;80.72
77590;BME280;66746;51.328;12.332;2023-03-13T03:33:32;99424.91;;;7.43;81.28
77590;BME280;66746;51.328;12.332;2023-03-13T03:36:04;99437.84;;;7.57;81.21
77590;BME280;66746;51.328;12.332;2023-03-13T03:38:32;99429.56;;;7.61;80.97
77590;BME280;66746;51.328;12.332;2023-03-13T03:40:59;99427.78;;;7.60;80.51
77590;BME280;66746;51.328;12.332;2023-03-13T03:43:28;99414.69;;;7.51;80.72
77590;BME280;66746;51.328;12.332;2023-03-13T03:46:00;99417.38;;;7.51;80.69
77590;BME280;66746;51.328;12.332;2023-03-13T03:48:29;99407.66;;;7.47;81.51
77590;BME280;66746;51.328;12.332;2023-03-13T03:50:58;99401.38;;;7.47;81.26
77590;BME280;66746;51.328;12.332;2023-03-13T03:53:28;99404.72;;;7.53;81.43
77590;BME280;66746;51.328;12.332;2023-03-13T03:55:57;99399.19;;;7.56;81.40
77590;BME280;66746;51.328;12.332;2023-03-13T03:58:32;99378.63;;;7.54;80.73
77590;BME280;66746;51.328;12.332;2023-03-13T04:01:16;99386.75;;;7.52;81.46
77590;BME280;66746;51.328;12.332;2023-03-13T04:03:44;99383.00;;;7.56;80.96
77590;BME280;66746;51.328;12.332;2023-03-13T04:06:12;99379.47;;;7.54;81.29
77590;BME280;66746;51.328;12.332;2023-03-13T04:08:38;99363.31;;;7.54;81.12
77590;BME280;66746;51.328;12.332;2023-03-13T04:11:06;99369.44;;;7.58;81.37
77590;BME280;66746;51.328;12.332;2023-03-13T04:13:36;99370.22;;;7.61;80.84
77590;BME280;66746;51.328;12.332;2023-03-13T04:16:06;99359.53;;;7.58;81.58
77590;BME280;66746;51.328;12.332;2023-03-13T04:18:32;99352.16;;;7.63;80.82
77590;BME280;66746;51.328;12.332;2023-03-13T04:21:01;99347.81;;;7.59;81.10
77590;BME280;66746;51.328;12.332;2023-03-13T04:23:30;99338.09;;;7.55;81.55
77590;BME280;66746;51.328;12.332;2023-03-13T04:25:59;99351.44;;;7.58;81.96
77590;BME280;66746;51.328;12.332;2023-03-13T04:28:26;99338.09;;;7.55;81.50
77590;BME280;66746;51.328;12.332;2023-03-13T04:30:57;99329.31;;;7.50;81.92
77590;BME280;66746;51.328;12.332;2023-03-13T04:33:46;99320.28;;;7.51;82.28
77590;BME280;66746;51.328;12.332;2023-03-13T04:36:34;99317.44;;;7.54;82.30
77590;BME280;66746;51.328;12.332;2023-03-13T04:39:12;99317.50;;;7.53;82.41
77590;BME280;66746;51.328;12.332;2023-03-13T04:41:55;99303.09;;;7.54;82.79
77590;BME280;66746;51.328;12.332;2023-03-13T04:44:49;99291.44;;;7.53;82.20
77590;BME280;66746;51.328;12.332;2023-03-13T04:47:40;99305.84;;;7.52;82.79
77590;BME280;66746;51.328;12.332;2023-03-13T04:50:34;99290.63;;;7.51;82.25
77590;BME280;66746;51.328;12.332;2023-03-13T04:53:20;99289.66;;;7.52;82.82
77590;BME280;66746;51.328;12.332;2023-03-13T04:56:01;99278.75;;;7.55;82.42
77590;BME280;66746;51.328;12.332;2023-03-13T04:58:51;99268.81;;;7.56;82.92
77590;BME280;66746;51.328;12.332;2023-03-13T05:01:33;99258.84;;;7.58;82.31
77590;BME280;66746;51.328;12.332;2023-03-13T05:04:15;99254.22;;;7.61;82.66
77590;BME280;66746;51.328;12.332;2023-03-13T05:06:58;99251.78;;;7.55;82.92
77590;BME280;66746;51.328;12.332;2023-03-13T05:09:49;99246.22;;;7.58;82.87
77590;BME280;66746;51.328;12.332;2023-03-13T05:12:39;99249.63;;;7.63;82.95
77590;BME280;66746;51.328;12.332;2023-03-13T05:15:35;99245.97;;;7.64;82.99
77590;BME280;66746;51.328;12.332;2023-03-13T05:18:21;99228.91;;;7.64;82.26
77590;BME280;66746;51.328;12.332;2023-03-13T05:21:02;99222.66;;;7.63;82.56
77590;BME280;66746;51.328;12.332;2023-03-13T05:24:01;99221.69;;;7.64;82.85
77590;BME280;66746;51.328;12.332;2023-03-13T05:26:39;99215.47;;;7.62;82.88
77590;BME280;66746;51.328;12.332;2023-03-13T05:29:33;99205.56;;;7.63;83.36
77590;BME280;66746;51.328;12.332;2023-03-13T05:32:15;99194.72;;;7.64;82.56
77590;BME280;66746;51.328;12.332;2023-03-13T05:35:00;99190.28;;;7.63;83.33
77590;BME280;66746;51.328;12.332;2023-03-13T05:37:42;99177.31;;;7.71;82.86
77590;BME280;66746;51.328;12.332;2023-03-13T05:40:17;99170.31;;;7.67;82.78
77590;BME280;66746;51.328;12.332;2023-03-13T05:43:05;99155.88;;;7.68;83.61
77590;BME280;66746;51.328;12.332;2023-03-13T05:45:45;99148.56;;;7.70;83.22
77590;BME280;66746;51.328;12.332;2023-03-13T05:48:30;99154.41;;;7.80;83.08
77590;BME280;66746;51.328;12.332;2023-03-13T05:51:14;99142.75;;;7.79;83.02
77590;BME280;66746;51.328;12.332;2023-03-13T05:53:51;99146.25;;;7.81;83.14
77590;BME280;66746;51.328;12.332;2023-03-13T05:56:44;99129.94;;;7.84;82.28
77590;BME280;66746;51.328;12.332;2023-03-13T05:59:25;99129.78;;;7.87;82.62
77590;BME280;66746;51.328;12.332;2023-03-13T06:02:06;99121.56;;;7.90;82.72
77590;BME280;66746;51.328;12.332;2023-03-13T06:04:37;99103.88;;;7.83;83.47
77590;BME280;66746;51.328;12.332;2023-03-13T06:07:04;99102.78;;;7.87;83.75
77590;BME280;66746;51.328;12.332;2023-03-13T06:09:31;99106.97;;;7.94;84.42
77590;BME280;66746;51.328;12.332;2023-03-13T06:11:58;99102.78;;;7.87;85.20
77590;BME280;66746;51.328;12.332;2023-03-13T06:14:28;99082.53;;;7.79;85.40
77590;BME280;66746;51.328;12.332;2023-03-13T06:17:21;99100.16;;;7.86;86.36
77590;BME280;66746;51.328;12.332;2023-03-13T06:19:51;99102.75;;;7.89;86.40
77590;BME280;66746;51.328;12.332;2023-03-13T06:22:17;99098.72;;;7.97;85.76
77590;BME280;66746;51.328;12.332;2023-03-13T06:24:44;99082.53;;;7.97;85.43
77590;BME280;66746;51.328;12.332;2023-03-13T06:27:11;99077.00;;;8.00;85.67
77590;BME280;66746;51.328;12.332;2023-03-13T06:29:38;99078.88;;;7.98;86.27
77590;BME280;66746;51.328;12.332;2023-03-13T06:32:06;99069.75;;;8.01;85.21
77590;BME280;66746;51.328;12.332;2023-03-13T06:34:32;99085.88;;;8.21;85.76
77590;BME280;66746;51.328;12.332;2023-03-13T06:36:59;99082.28;;;8.21;85.17
77590;BME280;66746;51.328;12.332;2023-03-13T06:39:31;99064.19;;;8.23;85.09
77590;BME280;66746;51.328;12.332;2023-03-13T06:42:00;99053.19;;;8.27;85.49
77590;BME280;66746;51.328;12.332;2023-03-13T06:44:29;99041.78;;;8.21;84.38
77590;BME280;66746;51.328;12.332;2023-03-13T06:46:59;99033.19;;;8.31;84.39
77590;BME280;66746;51.328;12.332;2023-03-13T06:49:29;99048.50;;;8.49;84.40
77590;BME280;66746;51.328;12.332;2023-03-13T06:51:56;99059.84;;;8.56;84.17
77590;BME280;66746;51.328;12.332;2023-03-13T06:54:30;99070.94;;;8.68;82.94
77590;BME280;66746;51.328;12.332;2023-03-13T06:56:59;99046.63;;;8.50;83.21
77590;BME280;66746;51.328;12.332;2023-03-13T06:59:28;99077.03;;;8.72;82.56
77590;BME280;66746;51.328;12.332;2023-03-13T07:02:02;99069.31;;;8.64;83.41
77590;BME280;66746;51.328;12.332;2023-03-13T07:04:29;99075.00;;;8.77;82.83
77590;BME280;66746;51.328;12.332;2023-03-13T07:06:57;99059.81;;;8.74;82.52
77590;BME280;66746;51.328;12.332;2023-03-13T07:09:33;99058.78;;;8.77;81.87
77590;BME280;66746;51.328;12.332;2023-03-13T07:11:59;99043.59;;;8.74;82.03
77590;BME280;66746;51.328;12.332;2023-03-13T07:14:26;99068.22;;;8.85;81.87
77590;BME280;66746;51.328;12.332;2023-03-13T07:17:07;99064.09;;;8.96;82.02
77590;BME280;66746;51.328;12.332;2023-03-13T07:19:34;99068.63;;;8.95;81.26
77590;BME280;66746;51.328;12.332;2023-03-13T07:22:01;99057.50;;;9.01;81.33
77590;BME280;66746;51.328;12.332;2023-03-13T07:24:29;99041.84;;;9.08;81.16
77590;BME280;66746;51.328;12.332;2023-03-13T07:26:58;99051.78;;;9.07;81.55
77590;BME280;66746;51.328;12.332;2023-03-13T07:29:33;99048.94;;;9.10;81.62
77590;BME280;66746;51.328;12.332;2023-03-13T07:31:59;99031.72;;;9.11;80.91
77590;BME280;66746;51.328;12.332;2023-03-13T07:34:30;99036.31;;;9.26;80.91
77590;BME280;66746;51.328;12.332;2023-03-13T07:37:00;99029.53;;;9.35;80.83
77590;BME280;66746;51.328;12.332;2023-03-13T07:39:32;99019.81;;;9.48;79.67
77590;BME280;66746;51.328;12.332;2023-03-13T07:41:59;99029.88;;;9.61;80.81
77590;BME280;66746;51.328;12.332;2023-03-13T07:44:30;99024.22;;;9.66;80.26
77590;BME280;66746;51.328;12.332;2023-03-13T07:46:58;99026.03;;;9.65;80.53
77590;BME280;66746;51.328;12.332;2023-03-13T07:49:33;99018.09;;;9.62;80.82
77590;BME280;66746;51.328;12.332;2023-03-13T07:51:59;99026.34;;;9.76;80.50
77590;BME280;66746;51.328;12.332;2023-03-13T07:54:29;99026.34;;;9.76;80.83
77590;BME280;66746;51.328;12.332;2023-03-13T07:56:56;99039.25;;;9.87;80.87
77590;BME280;66746;51.328;12.332;2023-03-13T07:59:34;99035.75;;;9.85;80.68
77590;BME280;66746;51.328;12.332;2023-03-13T08:02:01;99035.06;;;9.81;81.17
77590;BME280;66746;51.328;12.332;2023-03-13T08:04:29;99027.91;;;9.80;80.63
77590;BME280;66746;51.328;12.332;2023-03-13T08:07:01;99013.59;;;9.94;80.37
77590;BME280;66746;51.328;12.332;2023-03-13T08:09:31;99026.00;;;9.98;80.45
77590;BME280;66746;51.328;12.332;2023-03-13T08:12:00;99018.03;;;9.79;81.38
77590;BME280;66746;51.328;12.332;2023-03-13T08:14:29;99048.72;;;9.96;81.08
77590;BME280;66746;51.328;12.332;2023-03-13T08:16:59;99015.31;;;9.79;80.66
77590;BME280;66746;51.328;12.332;2023-03-13T08:19:29;99054.56;;;9.88;80.93
77590;BME280;66746;51.328;12.332;2023-03-13T08:22:00;99037.19;;;9.92;80.92
77590;BME280;66746;51.328;12.332;2023-03-13T08:24:29;99034.38;;;9.94;80.30
77590;BME280;66746;51.328;12.332;2023-03-13T08:27:02;99016.13;;;9.97;80.36
77590;BME280;66746;51.328;12.332;2023-03-13T08:29:29;99029.22;;;10.05;80.64
77590;BME280;66746;51.328;12.332;2023-03-13T08:32:00;99012.38;;;10.00;80.50
77590;BME280;66746;51.328;12.332;2023-03-13T08:34:29;99014.09;;;10.01;80.75
77590;BME280;66746;51.328;12.332;2023-03-13T08:37:00;99001.34;;;9.87;80.66
77590;BME280;66746;51.328;12.332;2023-03-13T08:39:30;99024.94;;;10.01;81.48
77590;BME280;66746;51.328;12.332;2023-03-13T08:42:02;99013.59;;;9.94;80.80
77590;BME280;66746;51.328;12.332;2023-03-13T08:44:30;99018.47;;;9.88;81.42
77590;BME280;66746;51.328;12.332;2023-03-13T08:47:00;99025.13;;;9.98;81.62
77590;BME280;66746;51.328;12.332;2023-03-13T08:49:33;99030.88;;;9.92;81.70
77590;BME280;66746;51.328;12.332;2023-03-13T08:52:02;99035.44;;;10.07;81.13
77590;BME280;66746;51.328;12.332;2023-03-13T08:54:29;99011.84;;;10.09;81.19
77590;BME280;66746;51.328;12.332;2023-03-13T08:57:00;99020.44;;;10.17;81.75
77590;BME280;66746;51.328;12.332;2023-03-13T08:59:29;99004.19;;;10.17;80.64
77590;BME280;66746;51.328;12.332;2023-03-13T09:02:02;99016.69;;;10.19;81.08
77590;BME280;66746;51.328;12.332;2023-03-13T09:04:30;98997.19;;;10.13;81.46
77590;BME280;66746;51.328;12.332;2023-03-13T09:07:01;99017.28;;;10.24;81.30
77590;BME280;66746;51.328;12.332;2023-03-13T09:09:30;99000.34;;;10.21;80.95
77590;BME280;66746;51.328;12.332;2023-03-13T09:11:59;98994.75;;;10.24;80.63
77590;BME280;66746;51.328;12.332;2023-03-13T09:14:32;99022.78;;;10.38;80.95
77590;BME280;66746;51.328;12.332;2023-03-13T09:17:02;99008.53;;;10.35;80.26
77590;BME280;66746;51.328;12.332;2023-03-13T09:19:32;99021.84;;;10.39;80.19
77590;BME280;66746;51.328;12.332;2023-03-13T09:22:01;99015.34;;;10.42;80.78
77590;BME280;66746;51.328;12.332;2023-03-13T09:24:32;99013.25;;;10.47;81.73
77590;BME280;66746;51.328;12.332;2023-03-13T09:26:59;99013.06;;;10.50;80.85
77590;BME280;66746;51.328;12.332;2023-03-13T09:29:29;99015.94;;;10.62;80.75
77590;BME280;66746;51.328;12.332;2023-03-13T09:32:01;99023.09;;;10.63;80.39
77590;BME280;66746;51.328;12.332;2023-03-13T09:34:31;99016.16;;;10.74;80.66
77590;BME280;66746;51.328;12.332;2023-03-13T09:36:59;99013.69;;;10.85;79.77
77590;BME280;66746;51.328;12.332;2023-03-13T09:39:35;98981.59;;;10.77;80.25
77590;BME280;66746;51.328;12.332;2023-03-13T09:42:09;98976.78;;;10.82;79.95
77590;BME280;66746;51.328;12.332;2023-03-13T09:44:43;98996.00;;;11.07;79.85
77590;BME280;66746;51.328;12.332;2023-03-13T09:47:17;99003.78;;;11.13;79.34
77590;BME280;66746;51.328;12.332;2023-03-13T09:49:48;99004.72;;;11.12;79.38
77590;BME280;66746;51.328;12.332;2023-03-13T09:52:17;99010.94;;;11.14;79.68
77590;BME280;66746;51.328;12.332;2023-03-13T09:54:51;99000.09;;;11.14;79.85
77590;BME280;66746;51.328;12.332;2023-03-13T09:57:32;98997.56;;;11.11;79.66
77590;BME280;66746;51.328;12.332;2023-03-13T10:00:02;99027.03;;;11.17;79.82
77590;BME280;66746;51.328;12.332;2023-03-13T10:02:34;99028.72;;;11.20;79.97
77590;BME280;66746;51.328;12.332;2023-03-13T10:05:09;99032.09;;;11.23;80.33
77590;BME280;66746;51.328;12.332;2023-03-13T10:07:37;99034.84;;;11.37;79.44
77590;BME280;66746;51.328;12.332;2023-03-13T10:10:10;99001.94;;;11.28;79.63
77590;BME280;66746;51.328;12.332;2023-03-13T10:12:43;99002.28;;;11.37;79.96
77590;BME280;66746;51.328;12.332;2023-03-13T10:15:29;98985.19;;;11.21;80.38
77590;BME280;66746;51.328;12.332;2023-03-13T10:18:11;98987.31;;;11.30;79.48
77590;BME280;66746;51.328;12.332;2023-03-13T10:20:39;99002.56;;;11.47;80.08
77590;BME280;66746;51.328;12.332;2023-03-13T10:23:12;99004.00;;;11.52;79.81
77590;BME280;66746;51.328;12.332;2023-03-13T10:25:42;99001.75;;;11.59;79.63
77590;BME280;66746;51.328;12.332;2023-03-13T10:28:11;98996.75;;;11.53;79.31
77590;BME280;66746;51.328;12.332;2023-03-13T10:30:41;98982.19;;;11.40;79.83
77590;BME280;66746;51.328;12.332;2023-03-13T10:33:21;99002.84;;;11.56;79.55
77590;BME280;66746;51.328;12.332;2023-03-13T10:36:03;99002.38;;;11.64;79.43
77590;BME280;66746;51.328;12.332;2023-03-13T10:38:32;99013.03;;;11.81;78.42
77590;BME280;66746;51.328;12.332;2023-03-13T10:41:06;99001.72;;;11.75;79.16
77590;BME280;66746;51.328;12.332;2023-03-13T10:43:34;99005.19;;;11.91;78.04
77590;BME280;66746;51.328;12.332;2023-03-13T10:46:01;99009.16;;;11.85;78.37
77590;BME280;66746;51.328;12.332;2023-03-13T10:48:35;98990.81;;;11.89;78.57
77590;BME280;66746;51.328;12.332;2023-03-13T10:51:02;98971.44;;;11.81;79.00
77590;BME280;66746;51.328;12.332;2023-03-13T10:53:32;98978.38;;;11.99;78.46
77590;BME280;66746;51.328;12.332;2023-03-13T10:56:09;98979.34;;;12.12;78.46
77590;BME280;66746;51.328;12.332;2023-03-13T10:58:40;98971.94;;;12.14;78.11
77590;BME280;66746;51.328;12.332;2023-03-13T11:01:13;98954.78;;;12.13;78.09
77590;BME280;66746;51.328;12.332;2023-03-13T11:03:41;98948.97;;;12.32;77.98
77590;BME280;66746;51.328;12.332;2023-03-13T11:09:10;98929.31;;;12.68;76.83
77590;BME280;66746;51.328;12.332;2023-03-13T11:11:47;98918.91;;;12.99;75.85
77590;BME280;66746;51.328;12.332;2023-03-13T11:14:17;98906.84;;;13.03;74.95
77590;BME280;66746;51.328;12.332;2023-03-13T11:16:48;98917.22;;;13.23;75.13
77590;BME280;66746;51.328;12.332;2023-03-13T11:19:34;98900.41;;;13.29;74.47
77590;BME280;66746;51.328;12.332;2023-03-13T11:22:12;98901.94;;;13.33;73.91
77590;BME280;66746;51.328;12.332;2023-03-13T11:24:45;98893.25;;;13.41;73.59
77590;BME280;66746;51.328;12.332;2023-03-13T11:27:25;98896.41;;;13.84;73.79
77590;BME280;66746;51.328;12.332;2023-03-13T11:30:12;98883.34;;;14.36;71.36
77590;BME280;66746;51.328;12.332;2023-03-13T11:32:42;98895.94;;;14.95;69.78
77590;BME280;66746;51.328;12.332;2023-03-13T11:35:20;98881.63;;;14.70;69.21
77590;BME280;66746;51.328;12.332;2023-03-13T11:37:50;98879.63;;;14.72;69.73
77590;BME280;66746;51.328;12.332;2023-03-13T11:40:20;98898.34;;;14.42;69.72
77590;BME280;66746;51.328;12.332;2023-03-13T11:43:01;98893.38;;;14.36;70.58
77590;BME280;66746;51.328;12.332;2023-03-13T11:46:17;98887.78;;;14.13;71.18
77590;BME280;66746;51.328;12.332;2023-03-13T11:49:09;98860.88;;;14.09;71.08
77590;BME280;66746;51.328;12.332;2023-03-13T11:51:50;98867.84;;;14.71;69.02
77590;BME280;66746;51.328;12.332;2023-03-13T11:55:00;98844.84;;;15.08;67.24
77590;BME280;66746;51.328;12.332;2023-03-13T11:57:33;98861.38;;;15.40;66.65
77590;BME280;66746;51.328;12.332;2023-03-13T12:00:22;98853.19;;;15.40;66.83
77590;BME280;66746;51.328;12.332;2023-03-13T12:03:05;98835.41;;;15.79;66.78
77590;BME280;66746;51.328;12.332;2023-03-13T12:05:40;98850.97;;;16.10;64.32
77590;BME280;66746;51.328;12.332;2023-03-13T12:08:12;98878.00;;;16.35;63.51
77590;BME280;66746;51.328;12.332;2023-03-13T12:10:46;98879.69;;;16.47;62.02
77590;BME280;66746;51.328;12.332;2023-03-13T12:13:18;98871.38;;;16.06;63.99
77590;BME280;66746;51.328;12.332;2023-03-13T12:15:53;98867.31;;;15.78;64.93
77590;BME280;66746;51.328;12.332;2023-03-13T12:18:33;98852.56;;;15.48;65.97
77590;BME280;66746;51.328;12.332;2023-03-13T12:21:04;98870.91;;;15.24;67.65
77590;BME280;66746;51.328;12.332;2023-03-13T12:23:41;98861.34;;;15.18;67.89
77590;BME280;66746;51.328;12.332;2023-03-13T12:26:13;98859.19;;;14.77;68.66
77590;BME280;66746;51.328;12.332;2023-03-13T12:28:44;98855.22;;;14.70;69.07
77590;BME280;66746;51.328;12.332;2023-03-13T12:31:18;98873.03;;;14.74;69.58
77590;BME280;66746;51.328;12.332;2023-03-13T12:33:52;98870.81;;;14.68;69.58
77590;BME280;66746;51.328;12.332;2023-03-13T12:36:23;98860.66;;;14.70;69.48
77590;BME280;66746;51.328;12.332;2023-03-13T12:39:09;98826.16;;;14.69;70.15
77590;BME280;66746;51.328;12.332;2023-03-13T12:41:39;98849.00;;;14.79;69.71
77590;BME280;66746;51.328;12.332;2023-03-13T12:44:08;98836.31;;;14.67;69.77
77590;BME280;66746;51.328;12.332;2023-03-13T12:47:00;98846.09;;;14.59;70.24
77590;BME280;66746;51.328;12.332;2023-03-13T12:49:52;98838.75;;;14.48;70.24
77590;BME280;66746;51.328;12.332;2023-03-13T12:52:57;98842.94;;;14.41;70.65
77590;BME280;66746;51.328;12.332;2023-03-13T12:55:42;98829.06;;;14.44;70.52
77590;BME280;66746;51.328;12.332;2023-03-13T12:58:27;98822.72;;;14.33;70.63
77590;BME280;66746;51.328;12.332;2023-03-13T13:01:03;98812.03;;;14.30;70.89
77590;BME280;66746;51.328;12.332;2023-03-13T13:03:35;98821.13;;;14.41;70.67
77590;BME280;66746;51.328;12.332;2023-03-13T13:06:08;98823.06;;;14.28;71.50
77590;BME280;66746;51.328;12.332;2023-03-13T13:08:38;98823.09;;;14.39;70.93
77590;BME280;66746;51.328;12.332;2023-03-13T13:11:42;98820.28;;;14.41;71.31
77590;BME280;66746;51.328;12.332;2023-03-13T13:17:32;98785.28;;;14.35;71.11
77590;BME280;66746;51.328;12.332;2023-03-13T13:23:31;98799.84;;;14.57;70.76
77590;BME280;66746;51.328;12.332;2023-03-13T13:32:42;98786.50;;;14.87;67.87
77590;BME280;66746;51.328;12.332;2023-03-13T13:35:25;98793.47;;;14.91;69.04
77590;BME280;66746;51.328;12.332;2023-03-13T13:38:25;98799.75;;;14.81;69.25
77590;BME280;66746;51.328;12.332;2023-03-13T13:41:02;98772.47;;;14.70;69.29
77590;BME280;66746;51.328;12.332;2023-03-13T13:43:32;98787.00;;;14.70;69.18
77590;BME280;66746;51.328;12.332;2023-03-13T13:46:01;98758.66;;;14.49;69.78
77590;BME280;66746;51.328;12.332;2023-03-13T13:48:31;98757.94;;;14.58;69.28